This is the latest recevied weather packets stored in our database for station/object HA9OZD-17. If no packets are shown the sender has not sent any weather packets the latest 10 day(s).
| Time | Temp. | Humidity | Pressure | Rain* | Wind** | Luminosity | Snow |
|---|---|---|---|---|---|---|---|
| 1777430439 | 8.33° C | 37% | 895 hPa | - | - | - | - |
| 1777426875 | 9.44° C | 36% | 896 hPa | - | - | - | - |
| 1777423274 | 10° C | 36% | 896 hPa | - | - | - | - |
| 1777419673 | 10.56° C | 35% | 896 hPa | - | - | - | - |
| 1777416071 | 11.11° C | 35% | 896 hPa | - | - | - | - |
| 1777412470 | 11.67° C | 34% | 896 hPa | - | - | - | - |
| 1777408869 | 12.78° C | 32% | 896 hPa | - | - | - | - |
| 1777405268 | 13.33° C | 30% | 896 hPa | - | - | - | - |
| 1777401666 | 15.56° C | 26% | 895 hPa | - | - | - | - |
| 1777398065 | 19.44° C | 21% | 895 hPa | - | - | - | - |
| 1777394464 | 21.67° C | 19% | 895 hPa | - | - | - | - |
| 1777390863 | 20.56° C | 20% | 895 hPa | - | - | - | - |
| 1777387262 | 20.56° C | 20% | 895 hPa | - | - | - | - |
| 1777383661 | 22.78° C | 17% | 896 hPa | - | - | - | - |
| 1777380059 | 25.56° C | 14% | 896 hPa | - | - | - | - |
| 1777376458 | 22.78° C | 17% | 896 hPa | - | - | - | - |
| 1777372857 | 16.67° C | 25% | 896 hPa | - | - | - | - |
| 1777369256 | 14.44° C | 28% | 896 hPa | - | - | - | - |
| 1777365655 | 13.33° C | 30% | 896 hPa | - | - | - | - |
| 1777362053 | 12.78° C | 31% | 896 hPa | - | - | - | - |
| 1777358452 | 11.67° C | 32% | 896 hPa | - | - | - | - |
| 1777354851 | 11.67° C | 33% | 896 hPa | - | - | - | - |
| 1777351250 | 10.56° C | 35% | 895 hPa | - | - | - | - |
| 1777347649 | 10.56° C | 35% | 895 hPa | - | - | - | - |
| 1777344087 | 10.56° C | 35% | 895 hPa | - | - | - | - |
* Rain since midnight (hover to see other rain measurements)
** Current wind speed in m/s (hover to see current wind gust speed)